createdAt,value
2019-04-21T00:01:00.288Z,11.4
2019-04-21T00:01:56.323Z,11.5
2019-04-21T00:02:55.509Z,11.4
2019-04-21T00:04:03.757Z,11.1
2019-04-21T00:05:16.204Z,10.9
2019-04-21T00:06:15.434Z,11.3
2019-04-21T00:07:13.005Z,12.1
2019-04-21T00:08:24.533Z,11
2019-04-21T00:09:17.732Z,11.4
2019-04-21T00:10:18.200Z,11.2
2019-04-21T00:11:15.029Z,11.9
2019-04-21T00:12:13.652Z,11.6
2019-04-21T00:13:11.829Z,11.2
2019-04-21T00:14:08.788Z,11.5
2019-04-21T00:15:06.010Z,11.8
2019-04-21T00:16:00.126Z,11.6
2019-04-21T00:17:03.515Z,11.7
2019-04-21T00:18:00.944Z,12.1
2019-04-21T00:19:02.916Z,11.5
2019-04-21T00:20:08.939Z,11.7
2019-04-21T00:20:58.528Z,12
2019-04-21T00:22:08.429Z,12.3
2019-04-21T00:23:12.932Z,12.3
2019-04-21T00:24:11.954Z,11.3
2019-04-21T00:25:11.571Z,12.1
2019-04-21T00:26:07.442Z,12.1
2019-04-21T00:27:15.389Z,11.7
2019-04-21T00:28:13.833Z,12.3
2019-04-21T00:29:16.194Z,11.9
2019-04-21T00:30:15.496Z,12.4
2019-04-21T00:31:14.911Z,11.9
2019-04-21T00:32:09.867Z,12.3
2019-04-21T00:33:06.603Z,12.6
2019-04-21T00:33:58.300Z,11.7
2019-04-21T00:35:04.604Z,12.3
2019-04-21T00:36:03.695Z,12.6
2019-04-21T00:37:09.053Z,12.5
2019-04-21T00:38:16.794Z,12.7
2019-04-21T00:39:28.479Z,12.2
2019-04-21T00:40:15.967Z,12.4
2019-04-21T00:41:18.609Z,12.4
2019-04-21T00:42:13.744Z,12.8
2019-04-21T00:43:14.574Z,12.7
2019-04-21T00:44:11.373Z,12.4
2019-04-21T00:45:11.453Z,12
2019-04-21T00:46:08.341Z,11.9
2019-04-21T00:47:11.344Z,12.6
2019-04-21T00:48:22.807Z,11.5
2019-04-21T00:49:15.078Z,12.9
2019-04-21T00:50:17.553Z,12.7
2019-04-21T00:52:28.001Z,12
2019-04-21T00:53:28.538Z,12.5
2019-04-21T00:54:24.395Z,12.4
2019-04-21T00:55:26.516Z,12.7
2019-04-21T00:56:21.085Z,13
2019-04-21T00:57:23.980Z,13.2
2019-04-21T00:58:22.309Z,13.2
2019-04-21T00:59:19.121Z,13
2019-04-21T01:00:21.922Z,12.9
2019-04-21T01:01:19.639Z,14.2
2019-04-21T01:02:15.289Z,13.8
2019-04-21T01:03:20.003Z,13.4
2019-04-21T01:04:23.306Z,12.9
2019-04-21T01:05:25.272Z,12.8
2019-04-21T01:06:22.209Z,12.9
2019-04-21T01:07:19.173Z,13.1
2019-04-21T01:08:19.717Z,12.6
2019-04-21T01:09:13.363Z,13.1
2019-04-21T01:10:14.318Z,13.1
2019-04-21T01:11:17.716Z,14
2019-04-21T01:12:18.885Z,13.4
2019-04-21T01:13:21.220Z,13.7
2019-04-21T01:14:29.624Z,13.6
2019-04-21T01:15:24.164Z,12.8
2019-04-21T01:16:20.140Z,13.6
2019-04-21T01:17:21.540Z,13.5
2019-04-21T01:18:20.335Z,13.6
2019-04-21T01:19:15.593Z,13.3
2019-04-21T01:20:12.798Z,13.7
2019-04-21T01:20:59.681Z,13.1
2019-04-21T01:21:59.800Z,13.5
2019-04-21T01:23:00.127Z,12.8
2019-04-21T01:24:05.361Z,13.2
2019-04-21T01:25:08.842Z,14
2019-04-21T01:26:14.404Z,13.2
2019-04-21T01:27:08.561Z,14.1
2019-04-21T01:28:18.492Z,13.3
2019-04-21T01:30:22.026Z,14.6
2019-04-21T01:31:16.868Z,14
2019-04-21T01:32:23.463Z,13.9
2019-04-21T01:33:25.831Z,14.1
2019-04-21T01:34:20.329Z,15.2
2019-04-21T01:35:20.556Z,15.5
2019-04-21T01:36:17.612Z,15.8
2019-04-21T01:37:18.282Z,13.9
2019-04-21T01:38:21.456Z,14.1
2019-04-21T01:39:19.417Z,13.7
2019-04-21T01:41:25.301Z,13.5
2019-04-21T01:42:20.869Z,13.7
2019-04-21T01:43:18.475Z,14
2019-04-21T01:44:24.715Z,13.5
2019-04-21T01:45:21.048Z,14
2019-04-21T01:46:19.033Z,14.1
2019-04-21T01:47:15.696Z,13.7
2019-04-21T01:48:14.714Z,13.8
2019-04-21T01:49:11.315Z,14.4
2019-04-21T01:50:11.125Z,14
2019-04-21T01:51:12.768Z,14.4
2019-04-21T01:52:29.800Z,14.8
2019-04-21T01:53:23.754Z,13.9
2019-04-21T01:54:21.586Z,14.4
2019-04-21T01:55:24.782Z,14
2019-04-21T01:56:16.691Z,13.6
2019-04-21T01:57:17.180Z,13.9
2019-04-21T01:58:14.919Z,14.1
2019-04-21T01:59:08.857Z,14.3
2019-04-21T02:00:12.923Z,13.5
2019-04-21T02:01:12.678Z,14.4
2019-04-21T02:02:22.788Z,14.7
2019-04-21T02:03:40.487Z,14.7
2019-04-21T02:04:29.073Z,14.4
2019-04-21T02:05:25.700Z,14.4
2019-04-21T02:06:20.532Z,14.9
2019-04-21T02:07:20.174Z,14.6
2019-04-21T02:08:21.349Z,15.2
2019-04-21T02:09:18.731Z,15
2019-04-21T02:10:26.480Z,14.7
2019-04-21T02:11:22.913Z,14.2
2019-04-21T02:12:25.097Z,14.3
2019-04-21T02:13:16.763Z,14.3
2019-04-21T02:15:23.313Z,14.1
2019-04-21T02:16:22.583Z,14.8
2019-04-21T02:17:21.584Z,14.7
2019-04-21T02:18:21.877Z,15.3
2019-04-21T02:19:16.406Z,15.6
2019-04-21T02:20:15.116Z,14.5
2019-04-21T02:21:17.702Z,15
2019-04-21T02:22:27.075Z,14.8
2019-04-21T02:24:28.481Z,14.4
2019-04-21T02:25:25.665Z,14.9
2019-04-21T02:27:23.262Z,15.3
2019-04-21T02:28:27.857Z,14.8
2019-04-21T02:29:26.524Z,15.9
2019-04-21T02:30:35.198Z,14.4
2019-04-21T02:31:44.098Z,14.9
2019-04-21T02:32:35.113Z,15.4
2019-04-21T02:33:35.921Z,14.4
2019-04-21T02:34:48.549Z,15.5
2019-04-21T02:36:39.300Z,15.6
2019-04-21T02:37:36.479Z,15.1
2019-04-21T02:38:36.097Z,15.5
2019-04-21T02:40:38.273Z,15.7
2019-04-21T02:42:37.423Z,16.299999
2019-04-21T02:44:36.965Z,15.8
2019-04-21T02:45:37.582Z,15.3
2019-04-21T02:47:44.340Z,15.6
2019-04-21T02:48:43.123Z,16.299999
2019-04-21T02:49:44.715Z,15.9
2019-04-21T02:50:35.948Z,17.1
2019-04-21T02:51:33.234Z,16.1
2019-04-21T02:52:35.243Z,17.5
2019-04-21T02:53:38.933Z,16.9
2019-04-21T02:54:47.319Z,16.6
2019-04-21T02:55:28.255Z,16.6
2019-04-21T02:56:52.510Z,16.700001
2019-04-21T02:57:41.035Z,17.1
2019-04-21T02:58:50.920Z,17.1
2019-04-21T02:59:32.837Z,16.799999
2019-04-21T03:02:40.479Z,16.799999
2019-04-21T03:04:34.102Z,18.200001
2019-04-21T03:05:35.927Z,17.1
2019-04-21T03:06:39.160Z,17
2019-04-21T03:07:29.819Z,17.799999
2019-04-21T03:08:42.449Z,17.4
2019-04-21T03:09:35.442Z,17.9
2019-04-21T03:11:23.737Z,17.5
2019-04-21T03:12:28.432Z,17.1
2019-04-21T03:16:30.774Z,17.700001
2019-04-21T03:18:39.351Z,17.5
2019-04-21T03:19:44.653Z,18.299999
2019-04-21T03:20:50.783Z,18.1
2019-04-21T03:21:36.460Z,18
2019-04-21T03:22:29.697Z,18.700001
2019-04-21T03:23:45.763Z,18.6
2019-04-21T03:24:53.311Z,19
2019-04-21T03:25:40.757Z,17.700001
2019-04-21T03:26:47.852Z,18.6
2019-04-21T03:27:48.619Z,18.6
2019-04-21T03:29:34.626Z,18.299999
2019-04-21T03:33:07.939Z,18.799999
2019-04-21T03:38:36.517Z,18.799999
2019-04-21T03:39:36.365Z,18.299999
2019-04-21T03:40:31.972Z,19
2019-04-21T03:41:37.532Z,18.700001
2019-04-21T03:42:38.312Z,18.700001
2019-04-21T03:43:34.342Z,19.700001
2019-04-21T03:45:38.439Z,19.6
2019-04-21T03:46:40.847Z,19.6
2019-04-21T03:47:34.357Z,19.4
2019-04-21T03:49:27.171Z,20.4
2019-04-21T03:49:47.089Z,19.5
2019-04-21T03:50:32.933Z,20.200001
2019-04-21T03:51:35.530Z,19.799999
2019-04-21T03:52:43.840Z,19.700001
2019-04-21T03:54:41.179Z,20.1
2019-04-21T03:58:04.081Z,19.9
2019-04-21T03:58:46.195Z,21
2019-04-21T03:59:35.610Z,20.6
2019-04-21T04:01:40.236Z,20.200001
2019-04-21T04:02:41.150Z,19.5
2019-04-21T04:04:33.871Z,19.1
2019-04-21T04:05:47.632Z,19.700001
2019-04-21T04:06:42.411Z,19.9
2019-04-21T04:09:51.651Z,20.5
2019-04-21T04:10:42.480Z,20.9
2019-04-21T04:12:40.413Z,20.9
2019-04-21T04:13:47.115Z,20.9
2019-04-21T04:14:43.781Z,20
2019-04-21T04:15:45.097Z,20.9
2019-04-21T04:16:35.197Z,21.5
2019-04-21T04:17:32.358Z,21.200001
2019-04-21T04:18:45.877Z,21.200001
2019-04-21T04:19:38.816Z,20.799999
2019-04-21T04:20:34.462Z,19.200001
2019-04-21T04:23:44.833Z,21.200001
2019-04-21T04:24:38.647Z,21
2019-04-21T04:25:33.254Z,20.4
2019-04-21T04:27:51.021Z,21.799999
2019-04-21T04:28:45.813Z,21.1
2019-04-21T04:30:37.665Z,21.799999
2019-04-21T04:32:46.091Z,21.4
2019-04-21T04:34:47.038Z,22
2019-04-21T04:35:52.064Z,21.799999
2019-04-21T04:36:54.824Z,21.4
2019-04-21T04:40:38.092Z,21.200001
2019-04-21T04:41:41.314Z,21.9
2019-04-21T04:43:32.649Z,21.1
2019-04-21T04:46:43.616Z,22.1
2019-04-21T04:47:40.929Z,21.700001
2019-04-21T04:48:41.611Z,21.6
2019-04-21T04:49:47.519Z,22.1
2019-04-21T04:52:07.521Z,21.9
2019-04-21T04:52:36.030Z,22.1
2019-04-21T04:56:38.106Z,22
2019-04-21T04:58:59.234Z,22
2019-04-21T04:59:42.227Z,21.4
2019-04-21T05:01:04.572Z,22.700001
2019-04-21T05:03:48.778Z,21.799999
2019-04-21T05:06:45.713Z,21.9
2019-04-21T05:08:52.193Z,21.1
2019-04-21T05:10:56.614Z,22.5
2019-04-21T05:12:35.523Z,21.9
2019-04-21T05:13:43.173Z,21.6
2019-04-21T05:15:41.381Z,22.799999
2019-04-21T05:17:42.748Z,23.200001
2019-04-21T05:18:43.325Z,22.4
2019-04-21T05:20:01.486Z,21.9
2019-04-21T05:20:41.398Z,22.5
2019-04-21T05:21:38.502Z,22.4
2019-04-21T05:22:34.835Z,23.1
2019-04-21T05:23:31.039Z,22.700001
2019-04-21T05:24:33.087Z,21.6
2019-04-21T05:26:25.701Z,22.9
2019-04-21T05:27:29.206Z,22.5
2019-04-21T05:28:28.369Z,22.5
2019-04-21T05:29:29.477Z,22.5
2019-04-21T05:30:54.971Z,22.4
2019-04-21T05:31:38.110Z,22.299999
2019-04-21T05:32:39.407Z,22.1
2019-04-21T05:33:37.447Z,22.299999
2019-04-21T05:34:41.033Z,23.5
2019-04-21T05:35:31.953Z,23.1
2019-04-21T05:36:37.566Z,22.4
2019-04-21T05:37:34.659Z,22.200001
2019-04-21T05:38:31.271Z,23.4
2019-04-21T05:39:32.735Z,22.5
2019-04-21T05:40:26.243Z,23.4
2019-04-21T05:41:25.382Z,23.299999
2019-04-21T05:42:28.265Z,22.700001
2019-04-21T05:43:46.152Z,22
2019-04-21T05:44:41.158Z,22
2019-04-21T05:45:51.447Z,22.700001
2019-04-21T05:46:38.511Z,23.200001
2019-04-21T05:47:39.450Z,21.299999
2019-04-21T05:48:51.688Z,22
2019-04-21T05:49:32.555Z,22.200001
2019-04-21T05:50:31.912Z,23.299999
2019-04-21T05:51:30.166Z,22.700001
2019-04-21T05:52:32.798Z,22.299999
2019-04-21T05:53:55.465Z,22.4
2019-04-21T05:54:43.879Z,21.9
2019-04-21T05:55:43.387Z,21.9
2019-04-21T05:56:34.976Z,22.700001
2019-04-21T05:57:37.888Z,21.5
2019-04-21T05:58:37.610Z,22.5
2019-04-21T05:59:37.495Z,23.299999
2019-04-21T06:01:37.502Z,21.6
2019-04-21T06:02:34.991Z,21.200001
2019-04-21T06:03:44.061Z,20.5
2019-04-21T06:04:56.368Z,21.5
2019-04-21T06:05:42.327Z,21
2019-04-21T06:06:39.026Z,20.9
2019-04-21T06:07:39.267Z,20.200001
2019-04-21T06:08:41.991Z,20.799999
2019-04-21T06:09:43.757Z,21
2019-04-21T06:10:41.725Z,20.5
2019-04-21T06:11:35.808Z,20.799999
2019-04-21T06:12:39.985Z,20.6
2019-04-21T06:14:43.390Z,20.700001
2019-04-21T06:15:42.741Z,20
2019-04-21T06:16:47.789Z,19.4
2019-04-21T06:17:42.660Z,20.6
2019-04-21T06:19:42.998Z,20.200001
2019-04-21T06:20:40.444Z,19.299999
2019-04-21T06:21:38.351Z,19.700001
2019-04-21T06:22:35.820Z,20.1
2019-04-21T06:23:40.028Z,20.200001
2019-04-21T06:24:54.090Z,20.6
2019-04-21T06:25:54.377Z,20.5
2019-04-21T06:26:53.529Z,19.1
2019-04-21T06:27:37.572Z,19.4
2019-04-21T06:28:45.169Z,19.700001
2019-04-21T06:29:43.520Z,19.299999
2019-04-21T06:30:48.475Z,19.4
2019-04-21T06:33:44.274Z,17.799999
2019-04-21T06:34:56.364Z,18.299999
2019-04-21T06:36:42.118Z,17.200001
2019-04-21T06:37:56.295Z,16.700001
2019-04-21T06:38:53.724Z,17.200001
2019-04-21T06:40:01.405Z,16.200001
2019-04-21T06:40:42.072Z,17.5
2019-04-21T06:41:37.769Z,16.6
2019-04-21T06:42:49.900Z,17.4
2019-04-21T06:43:47.965Z,16.9
2019-04-21T06:44:48.033Z,17
2019-04-21T06:45:46.896Z,16.4
2019-04-21T06:46:39.113Z,16.6
2019-04-21T06:48:49.197Z,16.5
2019-04-21T06:49:42.589Z,16.799999
2019-04-21T06:50:45.587Z,16
2019-04-21T06:51:42.859Z,16.200001
2019-04-21T06:53:52.077Z,16.5
2019-04-21T06:54:46.689Z,15.9
2019-04-21T06:55:43.299Z,15.9
2019-04-21T06:56:44.882Z,15
2019-04-21T06:57:42.959Z,15
2019-04-21T06:58:42.603Z,14.1
2019-04-21T06:59:42.932Z,14.4
2019-04-21T07:00:40.377Z,14.6
2019-04-21T07:02:08.006Z,14.6
2019-04-21T07:03:07.951Z,14.6
2019-04-21T07:03:47.236Z,13.9
2019-04-21T07:04:49.927Z,13.6
2019-04-21T07:05:47.200Z,14
2019-04-21T07:06:59.100Z,14.6
2019-04-21T07:07:54.472Z,13.9
2019-04-21T07:08:52.724Z,14.9
2019-04-21T07:09:50.948Z,14.2
2019-04-21T07:10:42.859Z,14.6
2019-04-21T07:11:42.026Z,14.4
2019-04-21T07:12:44.700Z,14.3
2019-04-21T07:13:43.830Z,13.8
2019-04-21T07:14:46.787Z,14.5
2019-04-21T07:15:55.257Z,14.9
2019-04-21T07:16:50.731Z,14.7
2019-04-21T07:17:44.907Z,14.5
2019-04-21T07:18:49.578Z,14.7
2019-04-21T07:19:47.831Z,14.6
2019-04-21T07:20:48.894Z,14.6
2019-04-21T07:21:45.262Z,15.5
2019-04-21T07:22:47.592Z,15
2019-04-21T07:23:51.657Z,15
2019-04-21T07:24:47.736Z,14.3
2019-04-21T07:25:45.373Z,14.9
2019-04-21T07:26:50.581Z,15.2
2019-04-21T07:27:46.469Z,14.8
2019-04-21T07:28:55.812Z,15.4
2019-04-21T07:30:51.334Z,14.9
2019-04-21T07:31:53.996Z,15.3
2019-04-21T07:33:12.583Z,15.1
2019-04-21T07:34:50.956Z,15.5
2019-04-21T07:35:42.971Z,15.4
2019-04-21T07:36:57.687Z,14.8
2019-04-21T07:37:47.724Z,14.7
2019-04-21T07:38:45.134Z,15.1
2019-04-21T07:39:43.736Z,15.4
2019-04-21T07:40:41.552Z,15.5
2019-04-21T07:41:43.612Z,15.3
2019-04-21T07:42:42.512Z,15.3
2019-04-21T07:43:42.505Z,15.6
2019-04-21T07:44:39.052Z,16
2019-04-21T07:45:39.961Z,15.6
2019-04-21T07:46:41.332Z,15.3
2019-04-21T07:47:50.340Z,14.7
2019-04-21T07:48:49.064Z,15.2
2019-04-21T07:49:52.721Z,15.4
2019-04-21T07:50:51.179Z,15.4
2019-04-21T07:51:50.482Z,15.8
2019-04-21T07:52:53.038Z,15.1
2019-04-21T07:53:55.163Z,15.2
2019-04-21T07:54:56.643Z,15.8
2019-04-21T07:55:29.692Z,16.1
2019-04-21T07:56:34.767Z,15.7
2019-04-21T07:57:41.421Z,16.6
2019-04-21T07:58:53.237Z,16
2019-04-21T07:59:54.706Z,15.6
2019-04-21T08:01:11.496Z,16.1
2019-04-21T08:01:49.635Z,15.8
2019-04-21T08:02:48.965Z,15.9
2019-04-21T08:03:51.818Z,16.4
2019-04-21T08:05:52.407Z,16.4
2019-04-21T08:06:50.604Z,15.8
2019-04-21T08:07:51.747Z,15.7
2019-04-21T08:08:46.465Z,16.1
2019-04-21T08:09:46.068Z,15.8
2019-04-21T08:10:43.448Z,16.4
2019-04-21T08:11:41.487Z,16.200001
2019-04-21T08:12:45.746Z,16.6
2019-04-21T08:13:51.507Z,16.799999
2019-04-21T08:14:49.258Z,17.200001
2019-04-21T08:15:50.603Z,17.299999
2019-04-21T08:16:50.907Z,16.5
2019-04-21T08:17:46.707Z,17
2019-04-21T08:18:51.735Z,16.4
2019-04-21T08:19:48.549Z,16.200001
2019-04-21T08:20:47.631Z,17.200001
2019-04-21T08:21:57.222Z,15.7
2019-04-21T08:22:50.822Z,15.7
2019-04-21T08:23:46.529Z,16.5
2019-04-21T08:24:48.977Z,16.700001
2019-04-21T08:25:58.695Z,15.8
2019-04-21T08:26:49.437Z,16.5
2019-04-21T08:27:53.720Z,16.799999
2019-04-21T08:28:51.944Z,17.4
2019-04-21T08:29:51.418Z,16.4
2019-04-21T08:30:47.176Z,16.4
2019-04-21T08:31:55.737Z,15.9
2019-04-21T08:33:52.358Z,16.200001
2019-04-21T08:35:04.404Z,16.200001
2019-04-21T08:36:10.811Z,16.200001
2019-04-21T08:36:50.760Z,16
2019-04-21T08:38:53.402Z,16.299999
2019-04-21T08:40:08.689Z,15.8
2019-04-21T08:40:55.677Z,15.5
2019-04-21T08:41:49.478Z,16.1
2019-04-21T08:42:50.656Z,15.2
2019-04-21T08:43:50.990Z,16.200001
2019-04-21T08:44:52.222Z,15.8
2019-04-21T08:45:52.269Z,15.8
2019-04-21T08:46:52.234Z,15.4
2019-04-21T08:47:51.785Z,15
2019-04-21T08:48:55.175Z,15.3
2019-04-21T08:49:53.444Z,14.2
2019-04-21T08:50:49.315Z,15.5
2019-04-21T08:52:00.473Z,14.9
2019-04-21T08:53:05.919Z,16.200001
2019-04-21T08:53:53.086Z,15.4
2019-04-21T08:54:55.051Z,16
2019-04-21T08:55:55.236Z,15.9
2019-04-21T08:56:52.393Z,15.1
2019-04-21T08:58:07.882Z,15.7
2019-04-21T08:58:55.812Z,15.8
2019-04-21T08:59:58.471Z,16
2019-04-21T09:00:54.892Z,17
2019-04-21T09:01:55.088Z,15.8
2019-04-21T09:02:55.687Z,15.5
2019-04-21T09:03:54.952Z,16.299999
2019-04-21T09:04:52.303Z,15.4
2019-04-21T09:05:49.163Z,15.9
2019-04-21T09:07:04.346Z,15
2019-04-21T09:07:56.998Z,16
2019-04-21T09:08:51.807Z,15.9
2019-04-21T09:09:51.439Z,14.8
2019-04-21T09:10:52.691Z,15
2019-04-21T09:11:53.684Z,15.6
2019-04-21T09:12:51.561Z,14.7
2019-04-21T09:13:53.906Z,14.6
2019-04-21T09:14:54.042Z,15.1
2019-04-21T09:15:52.038Z,14.7
2019-04-21T09:16:51.188Z,15.5
2019-04-21T09:17:44.398Z,14.8
2019-04-21T09:18:44.547Z,14.9
2019-04-21T09:19:56.264Z,15.1
2019-04-21T09:20:56.892Z,14.8
2019-04-21T09:21:54.391Z,15
2019-04-21T09:22:53.889Z,14.8
2019-04-21T09:23:49.152Z,15.1
2019-04-21T09:24:55.621Z,14.9
2019-04-21T09:26:04.807Z,15.2
2019-04-21T09:26:51.202Z,15.1
2019-04-21T09:27:54.862Z,14.6
2019-04-21T09:28:47.831Z,15.1
2019-04-21T09:29:43.545Z,15
2019-04-21T09:30:42.097Z,14.7
2019-04-21T09:31:40.946Z,15.6
2019-04-21T09:32:36.988Z,14.7
2019-04-21T09:33:41.199Z,14.5
2019-04-21T09:34:40.362Z,14.5
2019-04-21T09:35:40.306Z,14.8
2019-04-21T09:36:43.012Z,14.6
2019-04-21T09:37:44.250Z,14
2019-04-21T09:38:40.180Z,15.6
2019-04-21T09:39:40.854Z,14.8
2019-04-21T09:40:42.244Z,15
2019-04-21T09:41:39.057Z,15.5
2019-04-21T09:42:44.232Z,14.4
2019-04-21T09:43:43.411Z,14.6
2019-04-21T09:44:40.396Z,14.6
2019-04-21T09:45:37.699Z,14.7
2019-04-21T09:46:44.066Z,14.9
2019-04-21T09:47:44.821Z,14.7
2019-04-21T09:48:46.500Z,14.2
2019-04-21T09:49:38.072Z,14.9
2019-04-21T09:50:38.382Z,15.1
2019-04-21T09:51:37.556Z,15
2019-04-21T09:52:44.767Z,14.6
2019-04-21T09:53:40.011Z,14.5
2019-04-21T09:54:48.057Z,14.3
2019-04-21T09:55:46.287Z,14.4
2019-04-21T09:56:44.075Z,14.2
2019-04-21T09:57:44.674Z,14.4
2019-04-21T09:58:42.313Z,14.5
2019-04-21T09:59:40.618Z,14.4
2019-04-21T10:00:45.491Z,13.6
2019-04-21T10:01:48.916Z,13.1
2019-04-21T10:02:45.980Z,13.7
2019-04-21T10:03:43.306Z,14
2019-04-21T10:04:39.940Z,13.7
2019-04-21T10:05:38.384Z,13.8
2019-04-21T10:06:37.949Z,14
2019-04-21T10:07:41.707Z,14.6
2019-04-21T10:08:38.823Z,14.6
2019-04-21T10:09:39.679Z,14.3
2019-04-21T10:10:38.327Z,14.1
2019-04-21T10:11:38.127Z,13.9
2019-04-21T10:12:39.142Z,13.6
2019-04-21T10:13:38.262Z,12
2019-04-21T10:14:38.760Z,11.3
2019-04-21T10:15:38.317Z,12.5
2019-04-21T10:16:38.622Z,11.5
2019-04-21T10:17:39.432Z,12.7
2019-04-21T10:18:40.293Z,12.3
2019-04-21T10:19:46.241Z,12.8
2019-04-21T10:20:38.678Z,11.8
2019-04-21T10:21:40.170Z,12.9
2019-04-21T10:22:39.718Z,12.7
2019-04-21T10:23:39.443Z,12.4
2019-04-21T10:24:40.149Z,12.6
2019-04-21T10:25:40.912Z,13.5
2019-04-21T10:26:39.202Z,13.3
2019-04-21T10:27:39.294Z,13.7
2019-04-21T10:28:39.246Z,12.6
2019-04-21T10:29:42.935Z,12.5
2019-04-21T10:30:40.697Z,13.1
2019-04-21T10:31:40.640Z,12.7
2019-04-21T10:32:40.685Z,13.2
2019-04-21T10:33:39.915Z,12.8
2019-04-21T10:34:39.601Z,13.1
2019-04-21T10:35:39.606Z,14
2019-04-21T10:36:40.723Z,12.7
2019-04-21T10:37:49.671Z,13.4
2019-04-21T10:38:46.329Z,12.9
2019-04-21T10:39:41.904Z,17
2019-04-21T10:40:41.243Z,14
2019-04-21T10:41:41.509Z,14
2019-04-21T10:42:40.471Z,13.5
2019-04-21T10:43:40.957Z,13.2
2019-04-21T10:44:40.974Z,12.9
2019-04-21T10:45:41.046Z,13.1
2019-04-21T10:46:40.676Z,12.4
2019-04-21T10:47:42.942Z,11.1
2019-04-21T10:48:42.762Z,12.1
2019-04-21T10:49:40.836Z,12.4
2019-04-21T10:50:41.229Z,11.2
2019-04-21T10:51:41.128Z,10.7
2019-04-21T10:52:40.955Z,10.8
2019-04-21T10:53:41.110Z,11.3
2019-04-21T10:55:03.204Z,10.9
2019-04-21T10:55:56.357Z,11.5
2019-04-21T10:56:44.299Z,11.4
2019-04-21T10:57:42.569Z,12.1
2019-04-21T10:58:42.361Z,11.6
2019-04-21T10:59:46.061Z,12.3
2019-04-21T11:00:43.981Z,11.9
2019-04-21T11:01:43.055Z,11.9
2019-04-21T11:02:43.148Z,11.9
2019-04-21T11:03:42.663Z,11.5
2019-04-21T11:04:43.627Z,11
2019-04-21T11:05:43.399Z,11.3
2019-04-21T11:06:42.448Z,11.8
2019-04-21T11:07:55.040Z,11.9
2019-04-21T11:08:47.419Z,12
2019-04-21T11:09:44.309Z,11.8
2019-04-21T11:10:43.738Z,11.6
2019-04-21T11:11:44.903Z,11.8
2019-04-21T11:12:44.724Z,10.8
2019-04-21T11:13:44.322Z,10.8
2019-04-21T11:14:43.190Z,10.9
2019-04-21T11:15:43.305Z,11.3
2019-04-21T11:16:45.893Z,11.7
2019-04-21T11:17:45.480Z,10.6
2019-04-21T11:18:45.993Z,10.4
2019-04-21T11:19:44.747Z,10.7
2019-04-21T11:20:44.723Z,9.5
2019-04-21T11:21:44.961Z,10.2
2019-04-21T11:22:43.938Z,9.9
2019-04-21T11:23:45.869Z,9.2
2019-04-21T11:24:45.040Z,9.5
2019-04-21T11:25:44.067Z,9.6
2019-04-21T11:26:45.388Z,10
2019-04-21T11:27:45.209Z,10.4
2019-04-21T11:28:45.196Z,10.2
2019-04-21T11:29:45.203Z,10.3
2019-04-21T11:30:44.539Z,10.3
2019-04-21T11:31:45.221Z,9.8
2019-04-21T11:32:47.590Z,10.7
2019-04-21T11:33:45.477Z,10.4
2019-04-21T11:34:45.293Z,11
2019-04-21T11:35:45.485Z,10.8
2019-04-21T11:36:45.669Z,10.3
2019-04-21T11:37:46.184Z,10.1
2019-04-21T11:39:01.971Z,10.3
2019-04-21T11:39:51.842Z,10.1
2019-04-21T11:40:45.866Z,10.4
2019-04-21T11:41:45.716Z,11
2019-04-21T11:42:45.928Z,10.1
2019-04-21T11:43:45.432Z,10.1
2019-04-21T11:44:47.133Z,10.7
2019-04-21T11:45:46.525Z,10.7
2019-04-21T11:46:46.632Z,11.6
2019-04-21T11:47:48.087Z,11.4
2019-04-21T11:48:48.242Z,11
2019-04-21T11:49:47.220Z,10.9
2019-04-21T11:50:46.668Z,11.9
2019-04-21T11:51:46.938Z,13
2019-04-21T11:52:47.282Z,12.7
2019-04-21T11:53:48.434Z,12.5
2019-04-21T11:54:48.609Z,13
2019-04-21T11:55:49.936Z,12.3
2019-04-21T11:56:48.528Z,12.6
2019-04-21T11:57:49.497Z,12.9
2019-04-21T11:58:47.816Z,14
2019-04-21T11:59:47.882Z,13.3
2019-04-21T12:00:47.462Z,13.6
2019-04-21T12:01:47.830Z,14.8
2019-04-21T12:02:47.726Z,14.5
2019-04-21T12:03:47.488Z,16.4
2019-04-21T12:04:47.527Z,14.7
2019-04-21T12:05:47.699Z,14.1
2019-04-21T12:06:49.083Z,14.8
2019-04-21T12:07:49.342Z,15.6
2019-04-21T12:08:51.412Z,16.1
2019-04-21T12:09:48.484Z,15.9
2019-04-21T12:10:47.652Z,15.7
2019-04-21T12:11:47.635Z,16
2019-04-21T12:12:47.781Z,15.4
2019-04-21T12:13:49.925Z,15.8
2019-04-21T12:14:50.122Z,15.3
2019-04-21T12:15:49.248Z,15.8
2019-04-21T12:16:49.264Z,14.6
2019-04-21T12:22:04.699Z,16.5
2019-04-21T12:22:57.790Z,16.299999
2019-04-21T12:23:56.946Z,16
2019-04-21T12:24:57.489Z,15.6
2019-04-21T12:25:57.157Z,15.4
2019-04-21T12:26:57.953Z,15.5
2019-04-21T12:27:58.136Z,15.4
2019-04-21T12:28:57.618Z,15.1
2019-04-21T12:29:57.690Z,15.4
2019-04-21T12:30:57.926Z,14.7
2019-04-21T12:31:57.773Z,14.6
2019-04-21T12:32:58.065Z,15.4
2019-04-21T12:33:58.174Z,15
2019-04-21T12:34:57.928Z,14.5
2019-04-21T12:35:58.078Z,15.6
2019-04-21T12:36:59.097Z,15.2
2019-04-21T12:37:58.528Z,16
2019-04-21T12:39:01.684Z,15.4
2019-04-21T12:40:00.565Z,16.4
2019-04-21T12:41:00.382Z,16.5
2019-04-21T12:41:58.769Z,15.1
2019-04-21T12:42:58.917Z,15.3
2019-04-21T12:44:00.343Z,14.6
2019-04-21T12:45:01.373Z,15.5
2019-04-21T15:04:57.782Z,7
2019-04-21T15:05:59.070Z,7
2019-04-21T15:06:57.321Z,6.8
2019-04-21T15:08:01.560Z,5.9
2019-04-21T15:08:57.507Z,6.1
2019-04-21T15:10:04.321Z,5.9
2019-04-21T15:10:58.853Z,6
2019-04-21T15:11:58.217Z,6
2019-04-21T15:12:57.210Z,6.2
2019-04-21T15:13:57.866Z,5.9
2019-04-21T15:14:58.117Z,6.5
2019-04-21T15:15:57.487Z,6.7
2019-04-21T15:17:00.932Z,6.6
2019-04-21T15:17:59.835Z,6.8
2019-04-21T15:18:59.310Z,7
2019-04-21T15:20:02.392Z,6.5
2019-04-21T15:20:59.361Z,6.1
2019-04-21T15:21:58.648Z,6.3
2019-04-21T15:22:58.437Z,6.2
2019-04-21T15:24:00.384Z,6
2019-04-21T15:25:00.559Z,6.2
2019-04-21T15:25:59.968Z,5.8
2019-04-21T15:26:59.041Z,6.2
2019-04-21T15:27:59.051Z,5.9
2019-04-21T15:28:59.147Z,5.6
2019-04-21T15:29:58.562Z,6.4
2019-04-21T15:30:58.611Z,6.3
2019-04-21T15:31:58.976Z,6.1
2019-04-21T15:32:58.669Z,6.5
2019-04-21T15:33:59.080Z,6.3
2019-04-21T15:35:00.169Z,6.5
2019-04-21T15:36:00.768Z,6.3
2019-04-21T15:36:59.937Z,7.4
2019-04-21T15:37:59.963Z,6.2
2019-04-21T15:39:01.432Z,5.9
2019-04-21T15:40:11.125Z,6.1
2019-04-21T15:41:02.581Z,7
2019-04-21T15:42:00.721Z,6.1
2019-04-21T15:43:00.129Z,5.9
2019-04-21T15:44:02.540Z,6.1
2019-04-21T15:45:00.909Z,5.9
2019-04-21T15:46:00.600Z,6.4
2019-04-21T15:46:59.826Z,6.2
2019-04-21T15:48:00.660Z,6.1
2019-04-21T15:49:00.762Z,5.8
2019-04-21T15:50:05.241Z,5.7
2019-04-21T15:51:03.347Z,5.6
2019-04-21T15:52:02.004Z,5.5
2019-04-21T15:53:01.385Z,5.6
2019-04-21T15:54:00.467Z,5.9
2019-04-21T15:55:00.829Z,6
2019-04-21T15:56:02.399Z,5.6
2019-04-21T15:57:02.692Z,6
2019-04-21T15:58:02.602Z,5.7
2019-04-21T15:59:01.488Z,5.8
2019-04-21T16:00:00.558Z,5.8
2019-04-21T16:01:00.750Z,6
2019-04-21T16:02:01.029Z,5.8
2019-04-21T16:03:00.717Z,5.5
2019-04-21T16:04:02.420Z,5.7
2019-04-21T16:05:01.882Z,5.5
2019-04-21T16:06:01.365Z,5.2
2019-04-21T16:07:01.621Z,5.5
2019-04-21T16:08:02.179Z,5.2
2019-04-21T16:09:02.857Z,5.5
2019-04-21T16:10:04.838Z,5.7
2019-04-21T16:11:04.456Z,5.6
2019-04-21T16:12:03.975Z,5.8
2019-04-21T16:13:01.653Z,5.3
2019-04-21T16:14:01.882Z,5.3
2019-04-21T16:15:02.878Z,5.3
2019-04-21T16:16:04.155Z,5.4
2019-04-21T16:17:05.338Z,5.1
2019-04-21T16:18:03.533Z,4.9
2019-04-21T16:19:02.021Z,5
2019-04-21T16:20:02.198Z,5.3
2019-04-21T16:21:02.173Z,5.3
2019-04-21T16:22:03.144Z,5.3
2019-04-21T16:23:02.390Z,5.6
2019-04-21T16:24:02.753Z,5.2
2019-04-21T16:25:03.315Z,5.2
2019-04-21T16:26:02.721Z,5.1
2019-04-21T16:27:05.231Z,5
2019-04-21T16:28:03.569Z,5.2
2019-04-21T16:29:02.925Z,5
2019-04-21T16:30:03.875Z,5.3
2019-04-21T16:31:04.596Z,5.1
2019-04-21T16:32:04.847Z,5.2
2019-04-21T16:33:04.021Z,4.9
2019-04-21T16:34:03.197Z,5.3
2019-04-21T16:35:08.314Z,5
2019-04-21T16:36:05.438Z,5.5
2019-04-21T16:37:05.271Z,5.3
2019-04-21T16:38:04.131Z,5.1
2019-04-21T16:39:03.372Z,5.3
2019-04-21T16:40:03.475Z,5.1
2019-04-21T16:41:06.824Z,5.3
2019-04-21T16:42:06.227Z,4.9
2019-04-21T16:43:05.635Z,4.9
2019-04-21T16:44:05.073Z,4.5
2019-04-21T16:45:04.939Z,5.2
2019-04-21T16:46:06.790Z,5
2019-04-21T16:47:24.136Z,4.9
2019-04-21T16:48:05.320Z,5
2019-04-21T16:49:04.201Z,5.3
2019-04-21T16:50:05.643Z,5.2
2019-04-21T16:51:04.037Z,5.3
2019-04-21T16:52:04.326Z,5.1
2019-04-21T16:53:04.149Z,5.6
2019-04-21T16:54:04.431Z,5.3